Airport View

Enter ICAO identifier to see the current METAR for that AWOS.

KFNL for example

KFUL 221053Z 00000KT 10SM CLR 19/16 A3002 RMK AO2 SLP163 T01940161

22 Jul 2014 11:20

Phone: 714-870-1372

Other Area AWOS: KSLI - KLGB - KEMT - KSNA

TAF KLGB 220522Z 2206/2306 VRB03KT P6SM FEW015 BKN250 FM221200 VRB03KT P6SM BKN012 FM221600 20008KT P6SM SCT150 SCT250 FM222200 30012KT P6SM SCT250 FM230500 30006KT P6SM SCT250